SBPP/PMG METAR and TAF weather

Enter ICAO airport designator
Station Type Date Time Source
SBPP METAR 2021/02/25 16:00 UTC NOAA

SBPP 251600Z 21004KT 9999 SCT025 FEW030TCU 31/03 Q1014


Station Type Date Time Source
SBPP Decoded METAR 2021/02/25 16:00 UTC NOAA

Ponta Pora Intl , Brazil (SBPP) 22-33S 055-42W
Feb 25, 2021 - 11:00 AM EST / 2021.02.25 1600 UTC
Wind: from the SSW (210 degrees) at 5 MPH (4 KT):0
Visibility: greater than 7 mile(s):0
Sky conditions: partly cloudy
Weather: Towering cumulus clouds observed
Temperature: 87 F (31 C)
Dew Point: 37 F (3 C)
Relative Humidity: 16%
Pressure (altimeter): 29.94 in. Hg (1014 hPa)
ob: SBPP 251600Z 21004KT 9999 SCT025 FEW030TCU 31/03 Q1014
cycle: 16

Station Type Date Time Source
SBPP TAF 2021/02/25 18:17 UTC NOAA

TAF SBPP 251600Z 2518/2618 23005KT 9999 BKN025 TN21/2609Z TX30/2616Z PROB40 2518/2521 21010KT 6000 TSRA BKN025 FEW030CB
BECMG 2521/2523 18006KT FEW015 PROB40 2604/2608 6000 BKN010
BECMG 2608/2610 08005KT 8000 SCT010 PROB30 2610/2612 2500 BR BKN008
BECMG 2612/2614 09008KT CAVOK
BECMG 2616/2618 06004KT SCT020
RMK PHH

Example: see airport list